sensor_id;sensor_type;location;lat;lon;timestamp;pressure;altitude;pressure_sealevel;temperature;humidity
25080;BME280;13071;48.868;9.996;2023-07-28T00:01:54;95799.22;;;17.16;100.00
25080;BME280;13071;48.868;9.996;2023-07-28T00:04:21;95801.91;;;17.12;100.00
25080;BME280;13071;48.868;9.996;2023-07-28T00:06:48;95797.66;;;17.11;100.00
25080;BME280;13071;48.868;9.996;2023-07-28T00:09:14;95808.97;;;17.10;100.00
25080;BME280;13071;48.868;9.996;2023-07-28T00:11:41;95801.16;;;17.08;100.00
25080;BME280;13071;48.868;9.996;2023-07-28T00:14:08;95809.75;;;17.07;100.00
25080;BME280;13071;48.868;9.996;2023-07-28T00:16:34;95810.53;;;17.11;100.00
25080;BME280;13071;48.868;9.996;2023-07-28T00:19:03;95799.97;;;17.13;100.00
25080;BME280;13071;48.868;9.996;2023-07-28T00:21:31;95804.28;;;17.14;100.00
25080;BME280;13071;48.868;9.996;2023-07-28T00:23:57;95795.28;;;17.13;100.00
25080;BME280;13071;48.868;9.996;2023-07-28T00:26:24;95799.97;;;17.13;100.00
25080;BME280;13071;48.868;9.996;2023-07-28T00:28:51;95801.56;;;17.07;100.00
25080;BME280;13071;48.868;9.996;2023-07-28T00:31:21;95801.94;;;17.05;100.00
25080;BME280;13071;48.868;9.996;2023-07-28T00:33:47;95793.34;;;17.00;100.00
25080;BME280;13071;48.868;9.996;2023-07-28T00:36:15;95800.78;;;16.92;100.00
25080;BME280;13071;48.868;9.996;2023-07-28T00:38:42;95794.13;;;16.90;100.00
25080;BME280;13071;48.868;9.996;2023-07-28T00:41:09;95790.59;;;16.78;100.00
25080;BME280;13071;48.868;9.996;2023-07-28T00:43:35;95785.94;;;16.75;100.00
25080;BME280;13071;48.868;9.996;2023-07-28T00:46:02;95791.78;;;16.70;100.00
25080;BME280;13071;48.868;9.996;2023-07-28T00:48:33;95783.19;;;16.65;100.00
25080;BME280;13071;48.868;9.996;2023-07-28T00:51:00;95788.22;;;16.56;100.00
25080;BME280;13071;48.868;9.996;2023-07-28T00:53:29;95786.25;;;16.49;100.00
25080;BME280;13071;48.868;9.996;2023-07-28T00:55:56;95780.38;;;16.40;100.00
25080;BME280;13071;48.868;9.996;2023-07-28T00:58:22;95779.59;;;16.39;100.00
25080;BME280;13071;48.868;9.996;2023-07-28T01:00:49;95776.09;;;16.32;100.00
25080;BME280;13071;48.868;9.996;2023-07-28T01:03:18;95778.41;;;16.26;100.00
25080;BME280;13071;48.868;9.996;2023-07-28T01:05:51;95782.31;;;16.29;100.00
25080;BME280;13071;48.868;9.996;2023-07-28T01:08:27;95778.78;;;16.25;100.00
25080;BME280;13071;48.868;9.996;2023-07-28T01:10:58;95785.41;;;16.24;100.00
25080;BME280;13071;48.868;9.996;2023-07-28T01:13:24;95786.19;;;16.24;100.00
25080;BME280;13071;48.868;9.996;2023-07-28T01:15:51;95775.28;;;16.24;100.00
25080;BME280;13071;48.868;9.996;2023-07-28T01:18:18;95785.81;;;16.22;100.00
25080;BME280;13071;48.868;9.996;2023-07-28T01:20:45;95783.47;;;16.21;100.00
25080;BME280;13071;48.868;9.996;2023-07-28T01:23:19;95783.09;;;16.22;100.00
25080;BME280;13071;48.868;9.996;2023-07-28T01:26:05;95783.47;;;16.21;100.00
25080;BME280;13071;48.868;9.996;2023-07-28T01:28:34;95781.91;;;16.23;100.00
25080;BME280;13071;48.868;9.996;2023-07-28T01:31:02;95784.63;;;16.23;100.00
25080;BME280;13071;48.868;9.996;2023-07-28T01:33:29;95780.75;;;16.24;100.00
25080;BME280;13071;48.868;9.996;2023-07-28T01:35:56;95789.34;;;16.26;100.00
25080;BME280;13071;48.868;9.996;2023-07-28T01:38:23;95791.28;;;16.29;100.00
25080;BME280;13071;48.868;9.996;2023-07-28T01:40:50;95780.00;;;16.27;100.00
25080;BME280;13071;48.868;9.996;2023-07-28T01:43:17;95776.88;;;16.43;99.54
25080;BME280;13071;48.868;9.996;2023-07-28T01:45:45;95781.56;;;16.35;99.73
25080;BME280;13071;48.868;9.996;2023-07-28T01:48:12;95777.66;;;16.36;99.53
25080;BME280;13071;48.868;9.996;2023-07-28T01:50:38;95776.84;;;16.29;99.79
25080;BME280;13071;48.868;9.996;2023-07-28T01:53:06;95779.19;;;16.23;100.00
25080;BME280;13071;48.868;9.996;2023-07-28T01:55:32;95765.94;;;16.25;100.00
25080;BME280;13071;48.868;9.996;2023-07-28T01:58:01;95769.03;;;16.20;100.00
25080;BME280;13071;48.868;9.996;2023-07-28T02:00:28;95778.00;;;16.17;100.00
25080;BME280;13071;48.868;9.996;2023-07-28T02:02:56;95760.84;;;16.17;100.00
25080;BME280;13071;48.868;9.996;2023-07-28T02:05:24;95765.53;;;16.16;100.00
25080;BME280;13071;48.868;9.996;2023-07-28T02:07:50;95759.28;;;16.19;100.00
25080;BME280;13071;48.868;9.996;2023-07-28T02:10:17;95767.09;;;16.17;100.00
25080;BME280;13071;48.868;9.996;2023-07-28T02:12:44;95760.84;;;16.17;100.00
25080;BME280;13071;48.868;9.996;2023-07-28T02:15:11;95759.69;;;16.21;100.00
25080;BME280;13071;48.868;9.996;2023-07-28T02:17:38;95766.31;;;16.24;100.00
25080;BME280;13071;48.868;9.996;2023-07-28T02:20:07;95761.25;;;16.22;100.00
25080;BME280;13071;48.868;9.996;2023-07-28T02:22:36;95759.69;;;16.25;100.00
25080;BME280;13071;48.868;9.996;2023-07-28T02:25:03;95758.91;;;16.21;100.00
25080;BME280;13071;48.868;9.996;2023-07-28T02:27:30;95755.41;;;16.31;99.59
25080;BME280;13071;48.868;9.996;2023-07-28T02:29:57;95762.81;;;16.27;99.44
25080;BME280;13071;48.868;9.996;2023-07-28T02:32:23;95760.47;;;16.29;99.78
25080;BME280;13071;48.868;9.996;2023-07-28T02:34:50;95758.53;;;16.26;99.90
25080;BME280;13071;48.868;9.996;2023-07-28T02:37:20;95757.38;;;16.27;100.00
25080;BME280;13071;48.868;9.996;2023-07-28T02:39:46;95759.69;;;16.28;99.60
25080;BME280;13071;48.868;9.996;2023-07-28T02:42:13;95762.81;;;16.30;99.54
25080;BME280;13071;48.868;9.996;2023-07-28T02:44:40;95758.94;;;16.42;98.60
25080;BME280;13071;48.868;9.996;2023-07-28T02:47:06;95756.22;;;16.42;98.58
25080;BME280;13071;48.868;9.996;2023-07-28T02:49:33;95751.91;;;16.34;98.84
25080;BME280;13071;48.868;9.996;2023-07-28T02:52:00;95749.94;;;16.31;99.50
25080;BME280;13071;48.868;9.996;2023-07-28T02:54:29;95759.34;;;16.51;98.67
25080;BME280;13071;48.868;9.996;2023-07-28T02:56:56;95755.09;;;16.64;97.96
25080;BME280;13071;48.868;9.996;2023-07-28T02:59:23;95763.66;;;16.59;98.17
25080;BME280;13071;48.868;9.996;2023-07-28T03:01:49;95771.06;;;16.59;98.18
25080;BME280;13071;48.868;9.996;2023-07-28T03:04:17;95757.41;;;16.55;98.37
25080;BME280;13071;48.868;9.996;2023-07-28T03:06:45;95769.47;;;16.58;98.57
25080;BME280;13071;48.868;9.996;2023-07-28T03:09:12;95769.53;;;16.68;98.33
25080;BME280;13071;48.868;9.996;2023-07-28T03:11:41;95779.28;;;16.59;98.81
25080;BME280;13071;48.868;9.996;2023-07-28T03:14:08;95784.34;;;16.60;98.52
25080;BME280;13071;48.868;9.996;2023-07-28T03:16:35;95787.47;;;16.59;98.79
25080;BME280;13071;48.868;9.996;2023-07-28T03:19:02;95789.41;;;16.58;99.17
25080;BME280;13071;48.868;9.996;2023-07-28T03:21:29;95791.75;;;16.60;98.99
25080;BME280;13071;48.868;9.996;2023-07-28T03:23:56;95791.00;;;16.66;98.31
25080;BME280;13071;48.868;9.996;2023-07-28T03:26:23;95799.97;;;16.60;99.11
25080;BME280;13071;48.868;9.996;2023-07-28T03:28:51;95801.50;;;16.57;98.94
25080;BME280;13071;48.868;9.996;2023-07-28T03:31:18;95806.94;;;16.54;99.49
25080;BME280;13071;48.868;9.996;2023-07-28T03:33:47;95814.72;;;16.48;100.00
25080;BME280;13071;48.868;9.996;2023-07-28T03:36:13;95819.00;;;16.38;100.00
25080;BME280;13071;48.868;9.996;2023-07-28T03:38:40;95818.63;;;16.40;100.00
25080;BME280;13071;48.868;9.996;2023-07-28T03:41:07;95828.00;;;16.46;100.00
25080;BME280;13071;48.868;9.996;2023-07-28T03:43:34;95822.53;;;16.46;100.00
25080;BME280;13071;48.868;9.996;2023-07-28T03:46:02;95820.22;;;16.55;99.87
25080;BME280;13071;48.868;9.996;2023-07-28T03:48:29;95813.19;;;16.51;100.00
25080;BME280;13071;48.868;9.996;2023-07-28T03:50:56;95821.03;;;16.59;99.69
25080;BME280;13071;48.868;9.996;2023-07-28T03:53:22;95830.34;;;16.55;100.00
25080;BME280;13071;48.868;9.996;2023-07-28T03:55:49;95834.34;;;16.71;99.73
25080;BME280;13071;48.868;9.996;2023-07-28T03:58:16;95840.16;;;16.73;99.20
25080;BME280;13071;48.868;9.996;2023-07-28T04:00:42;95833.94;;;16.80;98.85
25080;BME280;13071;48.868;9.996;2023-07-28T04:03:10;95840.16;;;16.73;99.01
25080;BME280;13071;48.868;9.996;2023-07-28T04:05:37;95841.75;;;16.81;98.94
25080;BME280;13071;48.868;9.996;2023-07-28T04:08:04;95841.38;;;16.90;98.29
25080;BME280;13071;48.868;9.996;2023-07-28T04:10:31;95836.69;;;16.94;97.21
25080;BME280;13071;48.868;9.996;2023-07-28T04:12:58;95844.09;;;16.94;98.12
25080;BME280;13071;48.868;9.996;2023-07-28T04:15:24;95856.22;;;16.82;98.89
25080;BME280;13071;48.868;9.996;2023-07-28T04:17:51;95856.88;;;16.54;100.00
25080;BME280;13071;48.868;9.996;2023-07-28T04:20:19;95853.75;;;16.41;100.00
25080;BME280;13071;48.868;9.996;2023-07-28T04:22:46;95854.50;;;16.31;100.00
25080;BME280;13071;48.868;9.996;2023-07-28T04:25:13;95864.63;;;16.38;100.00
25080;BME280;13071;48.868;9.996;2023-07-28T04:27:39;95851.41;;;16.47;100.00
25080;BME280;13071;48.868;9.996;2023-07-28T04:30:07;95855.31;;;16.46;100.00
25080;BME280;13071;48.868;9.996;2023-07-28T04:32:33;95852.97;;;16.45;100.00
25080;BME280;13071;48.868;9.996;2023-07-28T04:35:00;95857.25;;;16.46;100.00
25080;BME280;13071;48.868;9.996;2023-07-28T04:37:28;95852.22;;;16.51;100.00
25080;BME280;13071;48.868;9.996;2023-07-28T04:39:55;95850.63;;;16.54;100.00
25080;BME280;13071;48.868;9.996;2023-07-28T04:42:21;95846.78;;;16.58;100.00
25080;BME280;13071;48.868;9.996;2023-07-28T04:44:48;95858.03;;;16.53;100.00
25080;BME280;13071;48.868;9.996;2023-07-28T04:47:15;95854.16;;;16.47;100.00
25080;BME280;13071;48.868;9.996;2023-07-28T04:49:41;95859.28;;;16.59;100.00
25080;BME280;13071;48.868;9.996;2023-07-28T04:52:08;95846.78;;;16.58;100.00
25080;BME280;13071;48.868;9.996;2023-07-28T04:54:36;95837.81;;;16.61;100.00
25080;BME280;13071;48.868;9.996;2023-07-28T04:57:03;95843.66;;;16.60;100.00
25080;BME280;13071;48.868;9.996;2023-07-28T04:59:30;95836.66;;;16.62;100.00
25080;BME280;13071;48.868;9.996;2023-07-28T05:01:57;95841.38;;;16.72;100.00
25080;BME280;13071;48.868;9.996;2023-07-28T05:04:23;95846.81;;;16.72;100.00
25080;BME280;13071;48.868;9.996;2023-07-28T05:06:52;95853.84;;;16.77;100.00
25080;BME280;13071;48.868;9.996;2023-07-28T05:09:19;95855.41;;;16.74;100.00
25080;BME280;13071;48.868;9.996;2023-07-28T05:11:47;95855.81;;;16.80;100.00
25080;BME280;13071;48.868;9.996;2023-07-28T05:14:13;95855.81;;;16.80;100.00
25080;BME280;13071;48.868;9.996;2023-07-28T05:16:40;95855.00;;;16.83;100.00
25080;BME280;13071;48.868;9.996;2023-07-28T05:19:07;95859.69;;;16.82;100.00
25080;BME280;13071;48.868;9.996;2023-07-28T05:21:33;95862.03;;;16.84;100.00
25080;BME280;13071;48.868;9.996;2023-07-28T05:24:00;95858.91;;;16.78;100.00
25080;BME280;13071;48.868;9.996;2023-07-28T05:26:27;95854.63;;;16.81;100.00
25080;BME280;13071;48.868;9.996;2023-07-28T05:28:55;95853.47;;;16.86;100.00
25080;BME280;13071;48.868;9.996;2023-07-28T05:31:21;95855.81;;;16.83;100.00
25080;BME280;13071;48.868;9.996;2023-07-28T05:33:48;95849.16;;;16.84;100.00
25080;BME280;13071;48.868;9.996;2023-07-28T05:36:15;95851.50;;;16.79;100.00
25080;BME280;13071;48.868;9.996;2023-07-28T05:38:42;95848.41;;;16.77;100.00
25080;BME280;13071;48.868;9.996;2023-07-28T05:41:09;95850.31;;;16.73;100.00
25080;BME280;13071;48.868;9.996;2023-07-28T05:43:35;95850.31;;;16.73;100.00
25080;BME280;13071;48.868;9.996;2023-07-28T05:46:04;95861.66;;;16.75;100.00
25080;BME280;13071;48.868;9.996;2023-07-28T05:48:30;95862.81;;;16.74;100.00
25080;BME280;13071;48.868;9.996;2023-07-28T05:50:57;95874.53;;;16.74;100.00
25080;BME280;13071;48.868;9.996;2023-07-28T05:53:23;95871.00;;;16.74;100.00
25080;BME280;13071;48.868;9.996;2023-07-28T05:55:50;95872.19;;;16.80;100.00
25080;BME280;13071;48.868;9.996;2023-07-28T05:58:17;95880.00;;;16.81;100.00
25080;BME280;13071;48.868;9.996;2023-07-28T06:00:43;95874.94;;;16.87;100.00
25080;BME280;13071;48.868;9.996;2023-07-28T06:03:11;95876.09;;;16.93;100.00
25080;BME280;13071;48.868;9.996;2023-07-28T06:05:38;95868.69;;;17.08;100.00
25080;BME280;13071;48.868;9.996;2023-07-28T06:08:06;95879.25;;;17.06;100.00
25080;BME280;13071;48.868;9.996;2023-07-28T06:10:33;95880.06;;;17.06;100.00
25080;BME280;13071;48.868;9.996;2023-07-28T06:13:00;95882.78;;;17.13;100.00
25080;BME280;13071;48.868;9.996;2023-07-28T06:15:26;95888.63;;;17.19;100.00
25080;BME280;13071;48.868;9.996;2023-07-28T06:17:53;95890.59;;;17.18;100.00
25080;BME280;13071;48.868;9.996;2023-07-28T06:20:21;95887.84;;;17.18;100.00
25080;BME280;13071;48.868;9.996;2023-07-28T06:22:48;95896.84;;;17.19;100.00
25080;BME280;13071;48.868;9.996;2023-07-28T06:25:14;95898.41;;;17.27;100.00
25080;BME280;13071;48.868;9.996;2023-07-28T06:27:41;95902.72;;;17.24;100.00
25080;BME280;13071;48.868;9.996;2023-07-28T06:30:09;95897.22;;;17.28;100.00
25080;BME280;13071;48.868;9.996;2023-07-28T06:32:35;95903.09;;;17.30;100.00
25080;BME280;13071;48.868;9.996;2023-07-28T06:35:02;95908.56;;;17.30;100.00
25080;BME280;13071;48.868;9.996;2023-07-28T06:37:30;95907.41;;;17.31;100.00
25080;BME280;13071;48.868;9.996;2023-07-28T06:39:57;95909.72;;;17.33;100.00
25080;BME280;13071;48.868;9.996;2023-07-28T06:42:24;95919.13;;;17.32;100.00
25080;BME280;13071;48.868;9.996;2023-07-28T06:44:51;95903.88;;;17.31;100.00
25080;BME280;13071;48.868;9.996;2023-07-28T06:47:18;95916.78;;;17.34;100.00
25080;BME280;13071;48.868;9.996;2023-07-28T06:49:45;95914.81;;;17.48;100.00
25080;BME280;13071;48.868;9.996;2023-07-28T06:52:12;95919.53;;;17.65;100.00
25080;BME280;13071;48.868;9.996;2023-07-28T06:54:40;95917.19;;;17.67;100.00
25080;BME280;13071;48.868;9.996;2023-07-28T06:57:06;95923.44;;;17.64;100.00
25080;BME280;13071;48.868;9.996;2023-07-28T06:59:33;95927.75;;;17.65;100.00
25080;BME280;13071;48.868;9.996;2023-07-28T07:02:00;95936.34;;;17.67;100.00
25080;BME280;13071;48.868;9.996;2023-07-28T07:04:26;95934.78;;;17.63;100.00
25080;BME280;13071;48.868;9.996;2023-07-28T07:06:53;95939.47;;;17.73;100.00
25080;BME280;13071;48.868;9.996;2023-07-28T07:09:20;95936.72;;;17.84;100.00
25080;BME280;13071;48.868;9.996;2023-07-28T07:11:49;95937.91;;;17.79;100.00
25080;BME280;13071;48.868;9.996;2023-07-28T07:14:16;95937.09;;;17.82;100.00
25080;BME280;13071;48.868;9.996;2023-07-28T07:16:42;95939.81;;;17.93;100.00
25080;BME280;13071;48.868;9.996;2023-07-28T07:19:09;95936.31;;;17.82;100.00
25080;BME280;13071;48.868;9.996;2023-07-28T07:21:35;95938.69;;;17.80;100.00
25080;BME280;13071;48.868;9.996;2023-07-28T07:24:03;95949.22;;;17.74;100.00
25080;BME280;13071;48.868;9.996;2023-07-28T07:26:29;95952.72;;;17.82;100.00
25080;BME280;13071;48.868;9.996;2023-07-28T07:28:58;95953.13;;;17.87;100.00
25080;BME280;13071;48.868;9.996;2023-07-28T07:31:24;95955.84;;;17.87;100.00
25080;BME280;13071;48.868;9.996;2023-07-28T07:33:51;95961.72;;;17.93;100.00
25080;BME280;13071;48.868;9.996;2023-07-28T07:36:19;95955.47;;;17.99;100.00
25080;BME280;13071;48.868;9.996;2023-07-28T07:38:46;95957.38;;;18.13;100.00
25080;BME280;13071;48.868;9.996;2023-07-28T07:41:14;95967.53;;;18.16;100.00
25080;BME280;13071;48.868;9.996;2023-07-28T07:43:44;95984.75;;;18.24;100.00
25080;BME280;13071;48.868;9.996;2023-07-28T07:46:15;95964.44;;;18.14;100.00
25080;BME280;13071;48.868;9.996;2023-07-28T07:48:42;95960.94;;;17.92;100.00
25080;BME280;13071;48.868;9.996;2023-07-28T07:51:09;95963.59;;;18.31;100.00
25080;BME280;13071;48.868;9.996;2023-07-28T07:53:36;95960.41;;;18.61;100.00
25080;BME280;13071;48.868;9.996;2023-07-28T07:56:03;95965.00;;;18.85;100.00
25080;BME280;13071;48.868;9.996;2023-07-28T07:58:30;95958.53;;;19.20;100.00
25080;BME280;13071;48.868;9.996;2023-07-28T08:00:57;95963.81;;;19.56;100.00
25080;BME280;13071;48.868;9.996;2023-07-28T08:03:25;95974.22;;;19.75;100.00
25080;BME280;13071;48.868;9.996;2023-07-28T08:05:53;95971.84;;;19.80;100.00
25080;BME280;13071;48.868;9.996;2023-07-28T08:08:20;95972.03;;;20.04;100.00
25080;BME280;13071;48.868;9.996;2023-07-28T08:10:47;95972.41;;;20.06;100.00
25080;BME280;13071;48.868;9.996;2023-07-28T08:13:13;95972.84;;;20.01;98.86
25080;BME280;13071;48.868;9.996;2023-07-28T08:15:40;95983.56;;;19.88;97.35
25080;BME280;13071;48.868;9.996;2023-07-28T08:18:09;95971.22;;;20.03;98.75
25080;BME280;13071;48.868;9.996;2023-07-28T08:20:37;95961.94;;;20.35;98.81
25080;BME280;13071;48.868;9.996;2023-07-28T08:23:04;95960.53;;;20.53;98.80
25080;BME280;13071;48.868;9.996;2023-07-28T08:25:31;95959.78;;;20.83;97.23
25080;BME280;13071;48.868;9.996;2023-07-28T08:27:59;95964.97;;;20.78;93.24
25080;BME280;13071;48.868;9.996;2023-07-28T08:30:26;95965.63;;;20.55;94.78
25080;BME280;13071;48.868;9.996;2023-07-28T08:32:53;95975.97;;;20.44;93.51
25080;BME280;13071;48.868;9.996;2023-07-28T08:35:19;95974.81;;;20.41;94.39
25080;BME280;13071;48.868;9.996;2023-07-28T08:37:47;95976.69;;;20.48;93.57
25080;BME280;13071;48.868;9.996;2023-07-28T08:40:14;95975.41;;;20.59;94.40
25080;BME280;13071;48.868;9.996;2023-07-28T08:42:41;95980.94;;;20.56;94.09
25080;BME280;13071;48.868;9.996;2023-07-28T08:45:08;95978.16;;;20.59;95.55
25080;BME280;13071;48.868;9.996;2023-07-28T08:47:36;95988.59;;;20.38;91.56
25080;BME280;13071;48.868;9.996;2023-07-28T08:50:03;95986.88;;;20.10;93.31
25080;BME280;13071;48.868;9.996;2023-07-28T08:52:31;95985.41;;;19.98;95.20
25080;BME280;13071;48.868;9.996;2023-07-28T08:54:59;95991.53;;;19.72;98.23
25080;BME280;13071;48.868;9.996;2023-07-28T08:57:26;95997.53;;;19.56;99.97
25080;BME280;13071;48.868;9.996;2023-07-28T08:59:54;95995.25;;;19.44;98.82
25080;BME280;13071;48.868;9.996;2023-07-28T09:02:21;95998.81;;;19.37;100.00
25080;BME280;13071;48.868;9.996;2023-07-28T09:04:48;95999.94;;;19.40;100.00
25080;BME280;13071;48.868;9.996;2023-07-28T09:07:15;96001.53;;;19.34;100.00
25080;BME280;13071;48.868;9.996;2023-07-28T09:09:42;96005.09;;;19.31;100.00
25080;BME280;13071;48.868;9.996;2023-07-28T09:12:10;96007.97;;;19.13;100.00
25080;BME280;13071;48.868;9.996;2023-07-28T09:14:37;96006.34;;;19.16;100.00
25080;BME280;13071;48.868;9.996;2023-07-28T09:17:08;96009.53;;;19.07;100.00
25080;BME280;13071;48.868;9.996;2023-07-28T09:19:49;96004.47;;;19.09;100.00
25080;BME280;13071;48.868;9.996;2023-07-28T09:22:17;96006.75;;;19.18;100.00
25080;BME280;13071;48.868;9.996;2023-07-28T09:24:44;96010.63;;;19.27;100.00
25080;BME280;13071;48.868;9.996;2023-07-28T09:27:21;96012.19;;;19.25;100.00
25080;BME280;13071;48.868;9.996;2023-07-28T09:29:49;96019.63;;;19.28;100.00
25080;BME280;13071;48.868;9.996;2023-07-28T09:32:16;96019.94;;;19.44;100.00
25080;BME280;13071;48.868;9.996;2023-07-28T09:35:05;96019.22;;;19.29;100.00
25080;BME280;13071;48.868;9.996;2023-07-28T09:37:36;96029.44;;;19.25;100.00
25080;BME280;13071;48.868;9.996;2023-07-28T09:40:04;96019.63;;;19.28;100.00
25080;BME280;13071;48.868;9.996;2023-07-28T09:42:34;96023.06;;;19.39;100.00
25080;BME280;13071;48.868;9.996;2023-07-28T09:45:01;96022.78;;;19.26;100.00
25080;BME280;13071;48.868;9.996;2023-07-28T09:47:30;96027.81;;;19.35;100.00
25080;BME280;13071;48.868;9.996;2023-07-28T09:49:58;96030.19;;;19.33;100.00
25080;BME280;13071;48.868;9.996;2023-07-28T09:52:28;96029.00;;;19.30;100.00
25080;BME280;13071;48.868;9.996;2023-07-28T09:55:00;96027.78;;;19.46;100.00
25080;BME280;13071;48.868;9.996;2023-07-28T09:57:29;96036.78;;;19.46;99.96
25080;BME280;13071;48.868;9.996;2023-07-28T10:00:00;96037.50;;;19.57;100.00
25080;BME280;13071;48.868;9.996;2023-07-28T10:02:28;96031.59;;;19.62;100.00
25080;BME280;13071;48.868;9.996;2023-07-28T10:04:55;96032.72;;;19.72;99.72
25080;BME280;13071;48.868;9.996;2023-07-28T10:07:24;96041.66;;;19.79;99.42
25080;BME280;13071;48.868;9.996;2023-07-28T10:09:51;96040.31;;;20.02;98.53
25080;BME280;13071;48.868;9.996;2023-07-28T10:12:20;96042.56;;;20.17;96.02
25080;BME280;13071;48.868;9.996;2023-07-28T10:15:01;96045.53;;;20.37;94.83
25080;BME280;13071;48.868;9.996;2023-07-28T10:17:31;96040.88;;;20.72;94.22
25080;BME280;13071;48.868;9.996;2023-07-28T10:19:58;96036.31;;;20.92;93.26
25080;BME280;13071;48.868;9.996;2023-07-28T10:22:26;96043.03;;;20.87;91.25
25080;BME280;13071;48.868;9.996;2023-07-28T10:24:54;96047.78;;;20.83;90.88
25080;BME280;13071;48.868;9.996;2023-07-28T10:27:31;96039.47;;;20.90;90.52
25080;BME280;13071;48.868;9.996;2023-07-28T10:30:04;96041.03;;;20.54;91.74
25080;BME280;13071;48.868;9.996;2023-07-28T10:32:37;96043.06;;;20.84;89.38
25080;BME280;13071;48.868;9.996;2023-07-28T10:35:06;96036.94;;;21.06;89.02
25080;BME280;13071;48.868;9.996;2023-07-28T10:37:34;96034.16;;;21.40;88.36
25080;BME280;13071;48.868;9.996;2023-07-28T10:40:28;96042.75;;;21.42;88.02
25080;BME280;13071;48.868;9.996;2023-07-28T10:42:56;96038.16;;;21.36;88.60
25080;BME280;13071;48.868;9.996;2023-07-28T10:45:26;96040.59;;;21.27;86.26
25080;BME280;13071;48.868;9.996;2023-07-28T10:47:54;96038.31;;;21.22;86.57
25080;BME280;13071;48.868;9.996;2023-07-28T10:50:22;96041.38;;;21.31;86.53
25080;BME280;13071;48.868;9.996;2023-07-28T10:52:50;96039.41;;;21.28;84.71
25080;BME280;13071;48.868;9.996;2023-07-28T10:55:21;96049.69;;;21.54;85.22
25080;BME280;13071;48.868;9.996;2023-07-28T10:57:49;96031.44;;;21.64;85.69
25080;BME280;13071;48.868;9.996;2023-07-28T11:00:18;96039.06;;;21.52;85.72
25080;BME280;13071;48.868;9.996;2023-07-28T11:02:49;96041.78;;;21.56;84.32
25080;BME280;13071;48.868;9.996;2023-07-28T11:05:19;96035.78;;;21.61;84.95
25080;BME280;13071;48.868;9.996;2023-07-28T11:07:48;96031.88;;;21.01;84.85
25080;BME280;13071;48.868;9.996;2023-07-28T11:10:15;96039.97;;;21.73;83.26
25080;BME280;13071;48.868;9.996;2023-07-28T11:12:44;96032.09;;;21.75;83.60
25080;BME280;13071;48.868;9.996;2023-07-28T11:15:13;96032.91;;;21.72;82.36
25080;BME280;13071;48.868;9.996;2023-07-28T11:17:44;96041.53;;;21.74;83.48
25080;BME280;13071;48.868;9.996;2023-07-28T11:20:16;96038.19;;;21.86;82.84
25080;BME280;13071;48.868;9.996;2023-07-28T11:22:44;96041.13;;;21.75;83.86
25080;BME280;13071;48.868;9.996;2023-07-28T11:25:11;96037.63;;;21.71;82.17
25080;BME280;13071;48.868;9.996;2023-07-28T11:27:39;96041.03;;;21.56;84.56
25080;BME280;13071;48.868;9.996;2023-07-28T11:30:07;96040.59;;;21.27;85.08
25080;BME280;13071;48.868;9.996;2023-07-28T11:32:35;96042.16;;;21.31;86.29
25080;BME280;13071;48.868;9.996;2023-07-28T11:35:03;96048.31;;;21.39;86.38
25080;BME280;13071;48.868;9.996;2023-07-28T11:37:32;96043.44;;;21.50;84.89
25080;BME280;13071;48.868;9.996;2023-07-28T11:40:00;96044.81;;;21.65;83.43
25080;BME280;13071;48.868;9.996;2023-07-28T11:42:28;96044.34;;;21.70;83.29
25080;BME280;13071;48.868;9.996;2023-07-28T11:44:55;96052.13;;;21.48;84.20
25080;BME280;13071;48.868;9.996;2023-07-28T11:47:22;96053.94;;;21.59;85.74
25080;BME280;13071;48.868;9.996;2023-07-28T11:49:49;96050.25;;;21.69;83.62
25080;BME280;13071;48.868;9.996;2023-07-28T11:52:16;96049.06;;;21.70;83.16
25080;BME280;13071;48.868;9.996;2023-07-28T11:54:45;96054.56;;;21.70;84.48
25080;BME280;13071;48.868;9.996;2023-07-28T11:57:12;96050.66;;;21.67;84.25
25080;BME280;13071;48.868;9.996;2023-07-28T11:59:39;96057.38;;;21.66;85.50
25080;BME280;13071;48.868;9.996;2023-07-28T12:02:06;96045.78;;;21.78;83.72
25080;BME280;13071;48.868;9.996;2023-07-28T12:04:36;96053.00;;;21.95;81.38
25080;BME280;13071;48.868;9.996;2023-07-28T12:07:10;96052.53;;;22.01;82.32
25080;BME280;13071;48.868;9.996;2023-07-28T12:09:49;96048.56;;;22.28;79.87
25080;BME280;13071;48.868;9.996;2023-07-28T12:12:18;96044.13;;;22.34;81.19
25080;BME280;13071;48.868;9.996;2023-07-28T12:14:45;96043.13;;;22.25;81.09
25080;BME280;13071;48.868;9.996;2023-07-28T12:17:18;96043.63;;;22.63;76.60
25080;BME280;13071;48.868;9.996;2023-07-28T12:19:56;96035.63;;;22.68;74.82
25080;BME280;13071;48.868;9.996;2023-07-28T12:22:22;96034.06;;;22.67;74.94
25080;BME280;13071;48.868;9.996;2023-07-28T12:24:50;96038.72;;;22.74;75.19
25080;BME280;13071;48.868;9.996;2023-07-28T12:27:17;96042.94;;;22.55;76.20
25080;BME280;13071;48.868;9.996;2023-07-28T12:29:46;96037.25;;;22.66;76.98
25080;BME280;13071;48.868;9.996;2023-07-28T12:32:12;96027.00;;;22.66;73.60
25080;BME280;13071;48.868;9.996;2023-07-28T12:34:39;96040.84;;;22.63;75.05
25080;BME280;13071;48.868;9.996;2023-07-28T12:37:06;96034.84;;;22.68;76.97
25080;BME280;13071;48.868;9.996;2023-07-28T12:39:36;96043.53;;;22.66;75.01
25080;BME280;13071;48.868;9.996;2023-07-28T12:42:06;96037.44;;;22.78;74.89
25080;BME280;13071;48.868;9.996;2023-07-28T12:44:33;96035.88;;;22.77;75.80
25080;BME280;13071;48.868;9.996;2023-07-28T12:47:00;96038.03;;;22.66;74.56
25080;BME280;13071;48.868;9.996;2023-07-28T12:49:27;96038.41;;;22.68;74.58
25080;BME280;13071;48.868;9.996;2023-07-28T12:51:54;96044.69;;;22.69;75.76
25080;BME280;13071;48.868;9.996;2023-07-28T12:54:21;96035.75;;;22.61;74.11
25080;BME280;13071;48.868;9.996;2023-07-28T12:56:50;96046.56;;;22.52;74.52
25080;BME280;13071;48.868;9.996;2023-07-28T12:59:18;96045.94;;;22.45;75.31